Time;durP1;ratioP1;P1;durP2;ratioP2;P2;SDS_P1;SDS_P2;PMS_P1;PMS_P2;Temp;Humidity;BMP_temperature;BMP_pressure;BME280_temperature;BME280_humidity;BME280_pressure;Samples;Min_cycle;Max_cycle;Signal;HPM_P1;HPM_P2
2021/05/10 00:01:33;;;;;;;3.35;1.95;;;;;;;20.55;47.71;100103.44;6137347;28;20574;-49
2021/05/10 00:04:53;;;;;;;2.92;2.60;;;;;;;20.54;47.66;100098.25;6155104;28;20234;-49
2021/05/10 00:08:15;;;;;;;3.30;2.55;;;;;;;20.53;47.53;100102.69;6140759;28;20223;-46
2021/05/10 00:11:35;;;;;;;4.28;2.85;;;;;;;20.90;46.72;100100.44;6127666;28;20227;-50
2021/05/10 00:14:56;;;;;;;2.70;2.15;;;;;;;20.88;46.02;100102.31;6142353;28;20235;-50
2021/05/10 00:18:18;;;;;;;3.17;2.60;;;;;;;20.79;45.50;100103.72;6143362;28;20331;-50
2021/05/10 00:21:38;;;;;;;2.17;1.80;;;;;;;20.81;44.67;100108.94;6139305;28;20326;-51
2021/05/10 00:24:59;;;;;;;2.20;2.10;;;;;;;21.00;44.10;100106.81;6135975;28;20234;-52
2021/05/10 00:28:20;;;;;;;2.75;1.70;;;;;;;20.95;43.83;100106.25;6143884;28;20239;-47
2021/05/10 00:31:40;;;;;;;2.72;2.45;;;;;;;21.09;43.60;100107.19;6135420;28;20235;-52
2021/05/10 00:35:00;;;;;;;2.78;1.90;;;;;;;20.90;43.44;100103.06;6141828;28;20510;-47
2021/05/10 00:38:21;;;;;;;2.65;1.90;;;;;;;20.72;43.84;100101.56;6132875;28;20820;-46
2021/05/10 00:41:42;;;;;;;3.08;2.33;;;;;;;20.92;42.87;100109.13;6142165;28;20231;-46
2021/05/10 00:45:03;;;;;;;3.45;2.05;;;;;;;20.96;42.15;100107.97;6138922;28;20231;-49
2021/05/10 00:48:24;;;;;;;2.63;2.35;;;;;;;20.89;42.10;100105.81;6143734;28;20237;-51
2021/05/10 00:51:44;;;;;;;3.97;2.45;;;;;;;21.08;42.23;100113.44;6147026;28;20231;-46
2021/05/10 00:55:07;;;;;;;2.85;2.63;;;;;;;21.12;41.92;100107.00;6146708;28;20278;-52
2021/05/10 00:58:28;;;;;;;2.55;2.30;;;;;;;20.76;41.86;100105.72;6143759;28;20239;-47
2021/05/10 01:01:50;;;;;;;2.30;2.10;;;;;;;20.63;42.70;100105.66;6136003;28;20254;-47
2021/05/10 01:05:11;;;;;;;2.55;2.05;;;;;;;20.56;43.58;100102.50;6155412;28;20239;-50
2021/05/10 01:08:32;;;;;;;4.97;2.80;;;;;;;20.40;43.49;100102.59;6140346;28;20865;-52
2021/05/10 01:11:53;;;;;;;2.25;2.10;;;;;;;20.31;43.51;100097.03;6146135;28;20231;-51
2021/05/10 01:15:16;;;;;;;2.30;2.10;;;;;;;20.41;43.99;100103.44;6136373;28;20231;-52
2021/05/10 01:18:37;;;;;;;2.22;2.13;;;;;;;20.62;43.49;100096.84;6145029;28;20243;-51
2021/05/10 01:21:59;;;;;;;2.30;2.20;;;;;;;20.40;43.07;100099.09;6142113;28;20238;-51
2021/05/10 01:25:24;;;;;;;3.13;2.40;;;;;;;20.59;42.86;100099.69;6145545;28;20617;-49
2021/05/10 01:28:44;;;;;;;1.98;1.70;;;;;;;20.48;42.37;100099.47;6135417;28;20345;-49
2021/05/10 01:32:05;;;;;;;3.55;3.10;;;;;;;20.45;42.54;100104.94;6144700;28;20247;-48
2021/05/10 01:35:28;;;;;;;4.53;2.20;;;;;;;20.51;42.65;100096.66;6144640;28;20270;-49
2021/05/10 01:38:49;;;;;;;3.20;1.88;;;;;;;20.47;42.21;100100.41;6158317;28;20230;-50
2021/05/10 01:42:10;;;;;;;2.47;2.30;;;;;;;20.30;42.50;100101.47;6146200;28;20242;-47
2021/05/10 01:45:31;;;;;;;2.17;1.95;;;;;;;20.08;42.49;100112.47;6134913;28;20235;-46
2021/05/10 01:48:52;;;;;;;2.42;2.13;;;;;;;20.36;42.21;100109.00;6138241;28;20234;-53
2021/05/10 01:52:13;;;;;;;4.00;2.15;;;;;;;20.35;42.30;100114.38;6136967;28;20239;-49
2021/05/10 01:55:34;;;;;;;2.75;2.55;;;;;;;20.77;41.91;100115.38;6144568;28;20235;-50
2021/05/10 01:58:56;;;;;;;2.58;2.00;;;;;;;20.42;41.89;100106.00;6142388;28;20342;-49
2021/05/10 02:02:16;;;;;;;3.20;2.15;;;;;;;20.50;42.46;100115.25;6131888;28;20239;-52
2021/05/10 02:05:39;;;;;;;2.05;1.92;;;;;;;20.20;43.01;100113.53;6144449;28;20235;-52
2021/05/10 02:08:59;;;;;;;2.95;2.58;;;;;;;20.39;42.94;100107.97;6139384;28;20314;-51
2021/05/10 02:12:20;;;;;;;1.83;1.70;;;;;;;20.19;43.30;100109.19;6141975;28;20430;-49
2021/05/10 02:15:43;;;;;;;2.35;1.58;;;;;;;20.18;42.49;100112.75;6143983;28;20235;-54
2021/05/10 02:19:03;;;;;;;2.47;1.77;;;;;;;20.13;41.62;100113.06;6127157;28;20817;-51
2021/05/10 02:22:24;;;;;;;2.22;1.75;;;;;;;20.16;41.88;100112.00;6141436;28;20239;-52
2021/05/10 02:25:46;;;;;;;4.35;2.38;;;;;;;20.41;42.49;100114.00;6140237;28;20348;-49
2021/05/10 02:29:07;;;;;;;2.50;1.58;;;;;;;20.13;43.02;100120.97;6145299;28;20338;-48
2021/05/10 02:32:28;;;;;;;2.28;1.67;;;;;;;20.13;43.70;100115.69;6137268;28;20235;-52
2021/05/10 02:35:51;;;;;;;2.33;1.70;;;;;;;20.10;43.60;100115.88;6141136;28;20231;-49
2021/05/10 02:39:12;;;;;;;3.67;2.50;;;;;;;20.12;43.59;100119.25;6146310;28;20254;-51
2021/05/10 02:42:32;;;;;;;1.95;1.85;;;;;;;19.93;43.65;100122.19;6140786;28;20239;-52
2021/05/10 02:45:53;;;;;;;2.47;2.28;;;;;;;19.35;44.45;100125.47;6147500;28;20227;-53
2021/05/10 02:49:15;;;;;;;2.60;2.40;;;;;;;19.43;44.27;100137.34;6146005;28;20227;-50
2021/05/10 02:52:36;;;;;;;2.85;2.60;;;;;;;19.54;44.28;100135.84;6136292;28;20235;-52
2021/05/10 02:55:56;;;;;;;5.20;4.78;;;;;;;19.61;44.13;100129.28;6128270;28;20223;-51
2021/05/10 02:59:17;;;;;;;3.63;2.30;;;;;;;19.33;43.96;100120.31;6137235;28;20239;-49
2021/05/10 03:02:38;;;;;;;3.60;2.55;;;;;;;19.48;43.95;100118.56;6141554;28;20243;-52
2021/05/10 03:05:59;;;;;;;2.05;1.95;;;;;;;19.27;44.01;100110.94;6140945;28;20314;-50
2021/05/10 03:09:19;;;;;;;3.10;2.80;;;;;;;19.66;44.16;100090.28;6142425;28;20235;-49
2021/05/10 03:12:40;;;;;;;2.28;1.92;;;;;;;19.39;43.50;100151.66;6139870;28;20588;-50
2021/05/10 03:16:01;;;;;;;3.10;1.90;;;;;;;19.39;43.66;100151.66;6141427;28;20266;-51
2021/05/10 03:19:21;;;;;;;2.95;1.73;;;;;;;19.42;43.59;100140.88;6142391;28;20235;-54
2021/05/10 03:22:43;;;;;;;4.13;2.30;;;;;;;19.12;43.98;100158.47;6142414;28;20230;-50
2021/05/10 03:26:03;;;;;;;4.70;3.15;;;;;;;19.73;43.12;100155.03;6139994;28;20545;-47
2021/05/10 03:29:24;;;;;;;3.20;2.13;;;;;;;19.90;42.73;100146.13;6141328;28;20834;-52
2021/05/10 03:32:45;;;;;;;2.50;1.95;;;;;;;19.47;43.24;100159.97;6142867;28;20238;-47
2021/05/10 03:36:05;;;;;;;7.32;2.42;;;;;;;19.40;43.27;100170.97;6141777;28;20925;-52
2021/05/10 03:39:27;;;;;;;2.35;2.05;;;;;;;19.59;43.20;100160.22;6143328;28;20238;-45
2021/05/10 03:42:47;;;;;;;4.90;3.67;;;;;;;19.55;43.09;100169.25;6141978;28;20316;-49
2021/05/10 03:46:08;;;;;;;4.78;2.75;;;;;;;19.65;42.75;100167.78;6141675;28;20235;-45
2021/05/10 03:49:28;;;;;;;3.38;3.08;;;;;;;19.58;43.23;100177.00;6138633;28;20235;-51
2021/05/10 03:52:51;;;;;;;3.92;3.25;;;;;;;19.79;43.39;100159.97;6142434;28;20223;-53
2021/05/10 03:56:12;;;;;;;4.82;3.35;;;;;;;19.90;43.25;100161.97;6152387;28;20235;-48
2021/05/10 03:59:33;;;;;;;3.75;3.05;;;;;;;19.79;43.49;100167.91;6144106;28;20231;-46
2021/05/10 04:02:53;;;;;;;4.43;3.28;;;;;;;19.77;43.83;100161.81;6134883;28;20235;-48
2021/05/10 04:06:24;;;;;;;6.20;2.85;;;;;;;19.36;43.50;100177.34;6138639;28;20519;-51
2021/05/10 04:10:09;;;;;;;4.05;2.05;;;;;;;19.00;44.31;100174.03;6138646;28;20254;-52
2021/05/10 04:13:37;;;;;;;4.28;3.17;;;;;;;19.05;44.04;100169.34;6141830;28;20231;-50
2021/05/10 04:16:59;;;;;;;4.22;2.40;;;;;;;19.24;44.08;100178.91;6125506;28;20246;-51
2021/05/10 04:20:20;;;;;;;3.00;2.70;;;;;;;19.12;44.34;100176.94;6138704;28;20244;-49
2021/05/10 04:23:41;;;;;;;4.38;2.95;;;;;;;19.03;44.63;100194.09;6143528;28;20224;-54
2021/05/10 04:27:04;;;;;;;2.08;1.88;;;;;;;19.13;44.47;100189.19;6139208;28;20243;-48
2021/05/10 04:30:26;;;;;;;5.22;4.57;;;;;;;19.18;44.48;100189.78;6139073;28;20258;-49
2021/05/10 04:33:46;;;;;;;5.80;3.53;;;;;;;19.57;43.75;100201.72;6133524;28;20239;-51
2021/05/10 04:37:07;;;;;;;2.85;2.60;;;;;;;19.40;44.39;100192.94;6130769;28;20262;-48
2021/05/10 04:40:27;;;;;;;2.38;2.17;;;;;;;19.31;44.12;100203.16;6133148;28;20239;-48
2021/05/10 04:43:48;;;;;;;4.57;2.97;;;;;;;19.56;44.29;100197.34;6142561;28;20235;-51
2021/05/10 04:47:10;;;;;;;5.97;2.47;;;;;;;19.52;44.06;100193.19;6127856;28;20238;-51
2021/05/10 04:50:30;;;;;;;5.60;2.90;;;;;;;19.76;43.87;100183.91;6139258;28;20227;-54
2021/05/10 04:53:51;;;;;;;5.15;3.78;;;;;;;19.79;43.97;100175.81;6139323;28;20231;-52
2021/05/10 04:57:12;;;;;;;5.35;3.20;;;;;;;19.97;44.01;100181.81;6138878;28;20239;-46
2021/05/10 05:00:32;;;;;;;3.22;2.80;;;;;;;19.64;44.35;100179.31;6135426;28;20235;-48
2021/05/10 05:03:53;;;;;;;3.35;2.95;;;;;;;20.08;43.96;100178.53;6153099;28;20524;-53
2021/05/10 05:07:14;;;;;;;8.93;2.90;;;;;;;19.93;44.74;100180.31;6142811;28;20318;-50
2021/05/10 05:10:34;;;;;;;8.02;7.28;;;;;;;20.10;44.31;100179.28;6140589;28;20538;-49
2021/05/10 05:13:55;;;;;;;4.68;4.28;;;;;;;20.18;44.34;100185.00;6133529;28;20223;-49
2021/05/10 05:17:15;;;;;;;4.10;3.03;;;;;;;20.04;43.65;100175.22;6136880;28;20247;-46
2021/05/10 05:20:37;;;;;;;3.60;3.30;;;;;;;20.34;43.52;100174.38;6130596;28;20231;-53
2021/05/10 05:23:57;;;;;;;4.30;3.50;;;;;;;20.29;44.21;100176.41;6133542;28;20227;-51
2021/05/10 05:27:17;;;;;;;4.05;2.90;;;;;;;20.20;43.86;100172.56;6140910;28;20228;-52
2021/05/10 05:30:38;;;;;;;2.60;2.40;;;;;;;19.82;44.17;100173.00;6142161;28;20636;-49
2021/05/10 05:33:58;;;;;;;3.83;2.40;;;;;;;19.92;44.46;100159.25;6141634;28;20231;-51
2021/05/10 05:37:20;;;;;;;3.42;2.95;;;;;;;20.04;43.93;100161.16;6144398;28;20596;-49
2021/05/10 05:40:42;;;;;;;6.28;2.95;;;;;;;20.31;44.08;100150.75;6138768;28;20231;-51
2021/05/10 05:44:04;;;;;;;3.60;3.10;;;;;;;20.44;44.27;100148.22;6129810;28;20227;-48
2021/05/10 05:47:25;;;;;;;4.47;3.17;;;;;;;20.10;44.23;100186.38;6136408;28;20239;-50
2021/05/10 05:50:45;;;;;;;6.47;3.05;;;;;;;19.65;45.02;100188.91;6142897;28;20231;-46
2021/05/10 05:54:07;;;;;;;4.07;3.03;;;;;;;20.24;44.32;100182.00;6143422;28;20235;-58
2021/05/10 05:57:28;;;;;;;4.13;3.53;;;;;;;20.33;44.59;100192.97;6143181;28;20613;-59
2021/05/10 06:00:48;;;;;;;5.28;3.67;;;;;;;20.00;44.69;100201.94;6141572;28;20243;-59
2021/05/10 06:04:08;;;;;;;6.10;3.03;;;;;;;19.99;44.77;100209.00;6143554;28;20326;-60
2021/05/10 06:07:29;;;;;;;5.70;3.35;;;;;;;20.04;44.77;100203.44;6141687;28;20235;-55
2021/05/10 06:10:51;;;;;;;7.40;6.70;;;;;;;20.16;44.94;100210.69;6144436;28;20224;-53
2021/05/10 06:14:12;;;;;;;4.40;2.65;;;;;;;19.79;45.35;100196.97;6143689;28;20326;-55
2021/05/10 06:17:32;;;;;;;3.33;3.00;;;;;;;20.19;44.81;100191.97;6143499;28;20239;-57
2021/05/10 06:20:53;;;;;;;4.85;3.35;;;;;;;20.14;44.94;100191.41;6137973;28;20239;-53
2021/05/10 06:24:13;;;;;;;4.22;2.75;;;;;;;19.97;45.24;100194.19;6141482;28;20310;-50
2021/05/10 06:27:35;;;;;;;4.45;2.55;;;;;;;19.78;45.53;100219.03;6140746;28;20238;-50
2021/05/10 06:30:56;;;;;;;5.25;2.85;;;;;;;19.73;45.82;100238.72;6142338;28;20601;-50
2021/05/10 06:34:16;;;;;;;9.75;3.40;;;;;;;19.95;45.24;100220.72;6137949;28;20642;-45
2021/05/10 06:37:37;;;;;;;4.25;3.17;;;;;;;20.35;45.27;100210.41;6143265;28;20546;-47
2021/05/10 06:40:58;;;;;;;3.45;2.78;;;;;;;20.33;44.96;100200.88;6132482;28;20243;-52
2021/05/10 06:44:19;;;;;;;4.20;3.70;;;;;;;20.17;45.40;100220.31;6142542;28;20227;-50
2021/05/10 06:47:41;;;;;;;4.53;3.13;;;;;;;20.35;45.06;100231.56;6135863;28;20263;-48
2021/05/10 06:51:03;;;;;;;4.18;2.45;;;;;;;20.26;45.43;100227.69;6124734;28;20239;-50
2021/05/10 06:54:23;;;;;;;3.20;2.90;;;;;;;20.23;45.46;100224.38;6149549;28;20238;-47
2021/05/10 06:57:43;;;;;;;4.00;3.15;;;;;;;20.67;44.76;100210.34;6138459;28;20235;-51
2021/05/10 07:01:05;;;;;;;4.80;2.90;;;;;;;20.69;44.65;100228.75;6125701;28;20254;-47
2021/05/10 07:04:25;;;;;;;4.05;2.67;;;;;;;20.64;44.93;100215.78;6138215;28;20242;-49
2021/05/10 07:07:45;;;;;;;6.93;2.92;;;;;;;20.90;44.62;100205.41;6145518;28;20230;-48
2021/05/10 07:11:06;;;;;;;4.57;2.95;;;;;;;21.40;44.04;100210.19;6138614;28;20743;-48
2021/05/10 07:14:27;;;;;;;5.80;3.28;;;;;;;21.38;43.82;100217.38;6140995;28;20231;-49
2021/05/10 07:17:48;;;;;;;5.60;3.40;;;;;;;21.86;43.91;100218.78;6138656;28;20703;-51
2021/05/10 07:21:09;;;;;;;4.82;3.15;;;;;;;20.90;44.25;100214.22;6136594;28;20318;-51
2021/05/10 07:24:29;;;;;;;3.38;2.20;;;;;;;21.46;43.33;100205.47;6140214;28;20238;-50
2021/05/10 07:27:50;;;;;;;4.85;2.83;;;;;;;21.33;43.60;100208.03;6140038;28;20231;-51
2021/05/10 07:31:10;;;;;;;3.45;2.95;;;;;;;21.67;43.11;100222.63;6140104;28;20640;-47
2021/05/10 07:34:31;;;;;;;3.58;2.50;;;;;;;21.67;43.18;100233.22;6143931;28;20231;-50
2021/05/10 07:37:52;;;;;;;5.05;3.03;;;;;;;22.39;41.08;100238.22;6139130;28;20231;-52
2021/05/10 07:41:12;;;;;;;4.40;2.58;;;;;;;21.81;42.20;100240.31;6136931;28;20234;-52
2021/05/10 07:44:33;;;;;;;3.63;3.30;;;;;;;21.67;42.69;100232.38;6140666;28;20231;-51
2021/05/10 07:47:54;;;;;;;6.28;2.53;;;;;;;22.63;41.19;100224.28;6148669;28;20231;-49
2021/05/10 07:51:15;;;;;;;4.68;2.80;;;;;;;22.77;40.96;100235.63;6137136;28;20735;-53
2021/05/10 07:54:35;;;;;;;6.32;2.90;;;;;;;22.20;41.15;100226.19;6136712;28;20239;-47
2021/05/10 07:57:56;;;;;;;3.15;2.75;;;;;;;22.01;41.58;100236.31;6136774;28;20333;-50
2021/05/10 08:01:17;;;;;;;3.63;2.78;;;;;;;22.21;41.38;100238.47;6138137;28;20234;-48
2021/05/10 08:04:37;;;;;;;7.88;3.55;;;;;;;22.20;41.72;100239.47;6145102;28;25002;-51
2021/05/10 08:07:59;;;;;;;4.10;3.10;;;;;;;23.16;39.74;100246.25;6146486;28;20235;-47
2021/05/10 08:11:19;;;;;;;4.13;3.20;;;;;;;23.66;38.79;100255.03;6136195;28;20270;-48
2021/05/10 08:14:40;;;;;;;3.30;2.78;;;;;;;22.30;40.90;100250.34;6146529;28;20230;-53
2021/05/10 08:18:00;;;;;;;4.75;2.63;;;;;;;22.47;40.61;100259.81;6140548;28;20266;-48
2021/05/10 08:21:21;;;;;;;5.57;2.63;;;;;;;23.20;39.46;100261.00;6141353;28;20696;-49
2021/05/10 08:24:42;;;;;;;10.65;2.80;;;;;;;23.47;39.36;100252.88;6136937;28;22072;-51
2021/05/10 08:28:04;;;;;;;8.68;3.20;;;;;;;23.71;39.38;100246.72;6142020;28;20235;-50
2021/05/10 08:31:24;;;;;;;4.05;2.70;;;;;;;23.64;39.51;100254.31;6131248;28;20238;-49
2021/05/10 08:34:44;;;;;;;5.35;2.95;;;;;;;23.58;39.26;100262.72;6142954;28;20251;-53
2021/05/10 08:38:05;;;;;;;7.95;2.95;;;;;;;23.44;40.30;100273.50;6145597;28;20235;-49
2021/05/10 08:41:26;;;;;;;4.55;2.67;;;;;;;24.44;38.03;100266.19;6144739;28;20253;-53
2021/05/10 08:44:46;;;;;;;7.18;4.05;;;;;;;24.27;39.20;100249.69;6139437;28;20652;-50
2021/05/10 08:48:10;;;;;;;5.75;3.10;;;;;;;24.87;37.84;100255.78;6138915;28;20231;-51
2021/05/10 08:51:32;;;;;;;5.50;2.95;;;;;;;25.23;37.26;100253.88;6138028;28;20345;-50
2021/05/10 08:54:53;;;;;;;6.00;2.97;;;;;;;25.54;36.30;100256.75;6141925;28;20625;-51
2021/05/10 08:58:14;;;;;;;3.17;2.42;;;;;;;26.15;35.30;100242.88;6140527;28;20235;-49
2021/05/10 09:01:46;;;;;;;3.67;2.00;;;;;;;25.58;34.84;100246.69;6137021;28;20218;-51
2021/05/10 09:05:14;;;;;;;5.50;3.03;;;;;;;25.83;34.16;100248.19;6130822;28;20238;-47
2021/05/10 09:08:39;;;;;;;3.42;2.30;;;;;;;25.69;33.31;100239.50;6142342;28;20233;-54
2021/05/10 09:12:00;;;;;;;3.63;1.67;;;;;;;25.53;33.42;100241.72;6147801;28;20243;-51
2021/05/10 09:15:23;;;;;;;4.13;1.65;;;;;;;25.57;31.95;100234.31;6146230;28;20329;-51
2021/05/10 09:18:51;;;;;;;4.95;2.42;;;;;;;25.33;31.53;100244.16;6153349;28;20330;-52
2021/05/10 09:22:12;;;;;;;3.83;1.98;;;;;;;25.69;30.53;100226.16;6128333;28;20242;-49
2021/05/10 09:25:35;;;;;;;3.70;1.80;;;;;;;25.73;30.05;100230.28;6142809;28;20502;-47
2021/05/10 09:28:56;;;;;;;2.33;1.77;;;;;;;25.69;30.34;100223.50;6141944;28;20533;-51
2021/05/10 09:32:28;;;;;;;2.35;1.58;;;;;;;25.98;30.50;100238.97;6144161;28;20238;-47
2021/05/10 09:35:49;;;;;;;4.05;2.55;;;;;;;26.09;29.99;100236.25;6147694;28;20320;-50
2021/05/10 09:39:28;;;;;;;2.40;1.50;;;;;;;26.09;29.87;100257.59;6151478;28;20235;-50
2021/05/10 09:42:51;;;;;;;7.10;2.20;;;;;;;25.71;29.77;100272.22;6140876;28;20231;-51
2021/05/10 09:46:13;;;;;;;3.38;2.13;;;;;;;25.87;30.34;100262.97;6134374;28;20239;-53
2021/05/10 09:49:43;;;;;;;3.30;1.75;;;;;;;25.70;30.62;100253.69;6144571;28;20290;-51
2021/05/10 09:53:05;;;;;;;6.85;1.80;;;;;;;25.83;30.46;100259.69;6138750;28;20235;-49
2021/05/10 09:56:30;;;;;;;3.60;1.95;;;;;;;26.46;29.76;100258.97;6132843;28;20224;-47
2021/05/10 10:00:15;;;;;;;5.47;1.73;;;;;;;26.66;30.31;100252.81;6136857;28;20330;-48
2021/05/10 10:03:38;;;;;;;2.35;1.40;;;;;;;27.52;28.85;100255.19;6142507;28;20239;-49
2021/05/10 10:07:00;;;;;;;3.40;1.60;;;;;;;26.89;29.15;100240.16;6139653;28;20613;-54
2021/05/10 10:10:21;;;;;;;2.95;1.63;;;;;;;26.81;29.04;100253.34;6138987;28;20243;-51
2021/05/10 10:13:43;;;;;;;4.93;2.40;;;;;;;26.59;29.89;100253.47;6133704;28;20321;-50
2021/05/10 10:17:03;;;;;;;3.97;2.33;;;;;;;27.05;28.99;100244.16;6137227;28;20310;-53
2021/05/10 10:20:25;;;;;;;1.30;1.20;;;;;;;27.50;28.32;100249.97;6145175;28;20283;-49
2021/05/10 10:23:53;;;;;;;3.47;2.00;;;;;;;27.49;28.34;100258.97;6135837;28;20255;-52
2021/05/10 10:27:14;;;;;;;2.90;2.10;;;;;;;27.46;28.42;100239.69;6138731;28;20231;-52
2021/05/10 10:30:38;;;;;;;4.20;1.98;;;;;;;27.36;28.61;100230.81;6139809;28;20251;-50
2021/05/10 10:34:03;;;;;;;4.95;1.45;;;;;;;27.74;27.91;100234.53;6139571;28;20235;-54
2021/05/10 10:37:25;;;;;;;2.47;1.75;;;;;;;28.04;28.01;100223.72;6131883;28;20766;-48
2021/05/10 10:40:47;;;;;;;5.88;2.35;;;;;;;27.32;28.18;100229.34;6139589;28;20234;-49
2021/05/10 10:44:31;;;;;;;2.30;2.20;;;;;;;27.47;27.86;100233.34;6134736;28;20582;-47
2021/05/10 10:47:54;;;;;;;2.90;2.17;;;;;;;27.51;27.92;100229.44;6130354;28;20226;-50
2021/05/10 10:51:15;;;;;;;3.17;1.85;;;;;;;28.33;26.71;100230.88;6150845;28;20601;-47
2021/05/10 10:54:36;;;;;;;7.28;2.28;;;;;;;27.74;27.25;100239.88;6136300;28;20243;-48
2021/05/10 10:58:18;;;;;;;5.53;2.88;;;;;;;27.52;27.59;100228.44;6140847;28;20355;-49
2021/05/10 11:01:42;;;;;;;3.20;2.30;;;;;;;28.00;27.20;100229.50;6142293;28;20242;-48
2021/05/10 11:05:08;;;;;;;2.15;1.88;;;;;;;27.87;27.08;100225.22;6135742;28;20899;-48
2021/05/10 11:08:47;;;;;;;5.80;1.88;;;;;;;27.21;27.82;100233.81;6140414;28;20243;-49
2021/05/10 11:12:07;;;;;;;4.25;1.70;;;;;;;27.40;27.44;100222.38;6144474;28;20242;-47
2021/05/10 11:15:48;;;;;;;3.78;2.13;;;;;;;27.82;27.54;100229.31;6141593;28;20251;-46
2021/05/10 11:19:27;;;;;;;3.70;1.88;;;;;;;27.21;28.00;100241.81;6139991;28;20243;-51
2021/05/10 11:22:48;;;;;;;2.53;1.50;;;;;;;26.68;28.89;100237.53;6134576;28;20450;-48
2021/05/10 11:26:09;;;;;;;2.45;1.65;;;;;;;27.11;28.63;100233.78;6141708;28;20259;-50
2021/05/10 11:29:45;;;;;;;2.65;2.03;;;;;;;26.74;28.95;100230.81;6137460;28;20223;-48
2021/05/10 11:33:06;;;;;;;4.95;2.20;;;;;;;27.07;28.36;100236.84;6140628;28;20240;-49
2021/05/10 11:36:28;;;;;;;6.88;2.47;;;;;;;26.76;28.83;100242.19;6137087;28;20668;-48
2021/05/10 11:39:53;;;;;;;2.50;1.95;;;;;;;26.47;29.17;100253.50;6136710;28;20254;-49
2021/05/10 11:43:17;;;;;;;5.07;1.75;;;;;;;26.44;29.75;100266.25;6137340;28;20313;-54
2021/05/10 11:46:39;;;;;;;2.97;1.90;;;;;;;26.24;30.00;100282.13;6137447;28;20227;-51
2021/05/10 11:50:03;;;;;;;5.10;2.53;;;;;;;26.29;30.15;100271.94;6138794;28;20326;-48
2021/05/10 11:53:28;;;;;;;5.18;1.80;;;;;;;26.31;29.52;100287.81;6135528;28;20234;-46
2021/05/10 11:56:51;;;;;;;2.17;1.98;;;;;;;26.49;29.58;100288.94;6140812;28;20267;-51
2021/05/10 12:00:13;;;;;;;4.25;1.88;;;;;;;26.79;28.88;100291.81;6137634;28;20277;-48
2021/05/10 12:03:34;;;;;;;2.45;1.45;;;;;;;27.01;28.24;100289.00;6149464;28;20740;-50
2021/05/10 12:06:56;;;;;;;2.72;1.90;;;;;;;27.09;28.25;100293.69;6137879;28;20560;-51
2021/05/10 12:10:17;;;;;;;4.05;1.75;;;;;;;27.26;28.16;100308.28;6140571;28;20235;-49
2021/05/10 12:13:38;;;;;;;3.88;1.90;;;;;;;27.13;28.39;100303.13;6138266;28;20660;-53
2021/05/10 12:17:07;;;;;;;3.00;2.00;;;;;;;26.83;29.32;100320.84;6136672;28;20247;-48
2021/05/10 12:20:29;;;;;;;3.90;1.40;;;;;;;26.40;30.96;100356.44;6138958;28;20230;-44
2021/05/10 12:23:50;;;;;;;3.70;1.92;;;;;;;26.18;31.35;100343.19;6133321;28;20317;-46
2021/05/10 12:27:10;;;;;;;5.25;2.70;;;;;;;26.51;31.12;100339.53;6147169;28;20230;-47
2021/05/10 12:30:33;;;;;;;5.47;2.40;;;;;;;26.00;31.98;100341.06;6139770;28;20328;-47
2021/05/10 12:33:53;;;;;;;3.53;2.40;;;;;;;26.35;31.45;100352.44;6142971;28;20601;-48
2021/05/10 12:37:13;;;;;;;4.97;1.90;;;;;;;26.49;31.69;100349.50;6139319;28;20636;-45
2021/05/10 12:40:39;;;;;;;8.20;2.28;;;;;;;26.58;31.69;100361.22;6137348;28;20231;-45
2021/05/10 12:44:00;;;;;;;4.40;1.70;;;;;;;27.54;30.05;100338.78;6140854;28;20613;-49
2021/05/10 12:47:44;;;;;;;3.50;1.75;;;;;;;27.80;29.63;100357.00;6141277;28;20243;-45
2021/05/10 12:51:09;;;;;;;4.95;1.80;;;;;;;27.28;30.80;100351.78;6146649;28;20326;-46
2021/05/10 12:54:41;;;;;;;6.32;2.15;;;;;;;30.57;26.16;100347.00;6148109;28;20218;-48
2021/05/10 12:58:18;;;;;;;2.70;1.95;;;;;;;30.92;25.23;100364.09;6143920;28;20266;-46
2021/05/10 13:01:39;;;;;;;3.22;1.33;;;;;;;29.00;27.63;100380.94;6141433;28;20227;-45
2021/05/10 13:05:00;;;;;;;2.17;1.35;;;;;;;27.63;29.46;100375.41;6140108;28;20230;-47
2021/05/10 13:08:36;;;;;;;2.88;1.30;;;;;;;26.41;31.52;100379.50;6145540;28;20322;-51
2021/05/10 13:12:00;;;;;;;3.97;1.70;;;;;;;26.79;31.52;100396.00;6142371;28;20247;-47
2021/05/10 13:15:27;;;;;;;5.30;1.60;;;;;;;26.62;32.14;100408.94;6141717;28;20230;-47
2021/05/10 13:18:55;;;;;;;3.58;1.90;;;;;;;27.17;32.77;100421.31;6146287;28;20227;-46
2021/05/10 13:22:50;;;;;;;7.82;1.60;;;;;;;27.46;32.60;100434.88;6142328;28;20616;-49
2021/05/10 13:34:11;;;;;;;2.72;1.65;;;;;;;27.32;34.28;100460.13;6144085;28;20246;-49
2021/05/10 13:37:32;;;;;;;3.30;1.60;;;;;;;27.54;34.32;100464.47;6136805;28;20314;-50
2021/05/10 13:40:53;;;;;;;4.45;1.83;;;;;;;27.69;33.96;100478.34;6138866;28;20845;-46
2021/05/10 13:44:14;;;;;;;5.50;1.70;;;;;;;28.58;32.54;100497.31;6143784;28;20235;-46
2021/05/10 13:47:35;;;;;;;5.40;2.33;;;;;;;26.66;35.65;100503.00;6134535;28;20235;-55
2021/05/10 13:50:56;;;;;;;2.33;1.80;;;;;;;26.07;36.23;100499.63;6134887;28;20243;-56
2021/05/10 13:54:18;;;;;;;4.07;1.88;;;;;;;25.19;38.15;100525.97;6136603;28;20258;-54
2021/05/10 13:57:38;;;;;;;11.50;2.30;;;;;;;25.49;37.64;100525.47;6131698;28;20680;-58
2021/05/10 14:00:59;;;;;;;5.70;2.25;;;;;;;25.06;38.17;100536.69;6129765;28;20505;-51
2021/05/10 14:04:20;;;;;;;8.55;1.80;;;;;;;26.03;36.53;100527.53;6137059;28;20248;-54
2021/05/10 14:07:42;;;;;;;2.70;1.45;;;;;;;26.28;36.30;100528.28;6127237;28;20255;-57
2021/05/10 14:11:02;;;;;;;3.42;1.35;;;;;;;25.96;36.74;100530.81;6135646;28;20263;-57
2021/05/10 14:14:23;;;;;;;4.43;1.55;;;;;;;25.06;38.26;100561.50;6135733;28;20240;-54
2021/05/10 14:17:43;;;;;;;3.90;2.50;;;;;;;24.89;38.71;100562.78;6132497;28;21167;-54
2021/05/10 14:24:44;;;;;;;8.38;1.88;;;;;;;24.91;38.74;100573.28;6131355;28;20259;-55
2021/05/10 14:28:04;;;;;;;9.75;2.55;;;;;;;24.79;38.41;100580.38;6137992;28;20235;-54
2021/05/10 14:31:25;;;;;;;3.08;1.27;;;;;;;23.87;39.87;100592.16;6139354;28;20238;-56
2021/05/10 14:34:45;;;;;;;3.95;1.52;;;;;;;23.71;39.58;100587.84;6134777;28;20250;-52
2021/05/10 14:38:06;;;;;;;2.75;1.70;;;;;;;24.85;37.58;100587.91;6132181;28;20574;-51
2021/05/10 14:41:27;;;;;;;2.67;1.20;;;;;;;24.88;37.14;100587.69;6135677;28;20230;-53
2021/05/10 14:44:48;;;;;;;3.90;1.65;;;;;;;24.95;36.32;100607.59;6133375;28;20277;-57
2021/05/10 14:48:09;;;;;;;8.40;1.55;;;;;;;24.84;36.89;100612.84;6139280;28;20243;-51
2021/05/10 14:51:29;;;;;;;8.07;4.40;;;;;;;24.66;37.36;100614.16;6133432;28;20232;-55
2021/05/10 14:54:49;;;;;;;5.45;2.38;;;;;;;24.76;37.65;100617.88;6146436;28;20231;-59
2021/05/10 14:58:11;;;;;;;2.78;1.70;;;;;;;24.45;37.81;100625.34;6137955;28;20569;-60
2021/05/10 15:01:32;;;;;;;1.45;1.35;;;;;;;23.85;39.01;100628.63;6130506;28;20227;-59
2021/05/10 15:04:52;;;;;;;3.80;1.90;;;;;;;24.30;38.99;100629.94;6134770;28;20239;-58
2021/05/10 15:08:13;;;;;;;5.57;1.23;;;;;;;23.92;38.52;100632.56;6138503;28;20239;-58
2021/05/10 15:11:33;;;;;;;3.70;1.20;;;;;;;23.99;38.46;100639.19;6128661;28;20234;-59
2021/05/10 15:14:55;;;;;;;3.72;1.10;;;;;;;24.37;37.71;100646.34;6115746;28;20701;-58
2021/05/10 15:18:15;;;;;;;4.53;1.50;;;;;;;24.26;38.52;100651.53;6148138;28;20231;-59
2021/05/10 15:21:36;;;;;;;2.80;1.63;;;;;;;24.17;39.52;100672.50;6131214;28;20278;-50
2021/05/10 15:24:57;;;;;;;4.88;1.50;;;;;;;24.12;40.59;100663.97;6127712;28;20247;-53
2021/05/10 15:28:17;;;;;;;3.60;1.60;;;;;;;24.74;39.03;100678.38;6131715;28;20235;-53
2021/05/10 15:31:38;;;;;;;7.30;1.70;;;;;;;25.02;39.03;100690.56;6127197;28;20235;-50
2021/05/10 15:34:59;;;;;;;3.60;1.85;;;;;;;24.63;40.08;100707.56;6118453;28;20673;-52
2021/05/10 15:38:19;;;;;;;2.03;1.38;;;;;;;24.58;40.46;100702.53;6135224;28;20235;-51
2021/05/10 15:41:39;;;;;;;2.38;1.63;;;;;;;24.25;41.18;100700.38;6141830;28;20234;-50
2021/05/10 15:45:02;;;;;;;5.95;1.88;;;;;;;23.86;41.98;100718.06;6141434;28;20326;-47
2021/05/10 15:48:23;;;;;;;2.80;2.05;;;;;;;24.02;41.82;100724.09;6139575;28;20227;-52
2021/05/10 15:51:44;;;;;;;4.18;1.83;;;;;;;23.92;42.06;100736.28;6143665;28;20243;-51